Friday, November 24, 2017, 8:21 AM EST
Back to Local

KABE, Lehigh Valley International Airport

Location: Allentown, PA, United States Lat: 40.65
Local Time: 8:21 AM EST (13:21 GMT) Lon: -75.45
Time Zone: US/Eastern Elev: 393 ft

Show me the last for .
Show Decoded

2017-11-24 07:51 METAR KABE 241251Z 33004KT 10SM CLR M02/M06 A3006 RMK AO2 SLP185 T10221056 $ =
2017-11-24 06:51 METAR KABE 241151Z 32004KT 10SM CLR M04/M07 A3006 RMK AO2 SLP183 T10391067 11028
                 21044 53004 $ =
2017-11-24 05:51 METAR KABE 241051Z 00000KT 10SM CLR M04/M08 A3005 RMK AO2 SLP179 T10441078 $ =
2017-11-24 04:51 METAR KABE 240951Z AUTO 00000KT 10SM CLR M04/M07 A3005 RMK AO2 SLP179 T10391072
                 $ =
2017-11-24 03:51 METAR KABE 240851Z 00000KT 10SM CLR M04/M07 A3004 RMK AO2 SLP178 T10391067 51003
                 $ =
2017-11-24 02:51 METAR KABE 240751Z 00000KT 10SM CLR M03/M07 A3004 RMK AO2 SLP176 T10331067 $ =
2017-11-24 01:51 METAR KABE 240651Z 00000KT 10SM CLR M03/M07 A3004 RMK AO2 SLP177 T10331067 $ =
2017-11-24 00:51 METAR KABE 240551Z 00000KT 10SM CLR M04/M07 A3004 RMK AO2 SLP175 T10391072 10017
                 21039 58002 $ =
2017-11-23 23:51 METAR KABE 240451Z 00000KT 10SM CLR M02/M07 A3005 RMK AO2 SLP180 T10221072
                 400561028 $ =
2017-11-23 22:51 METAR KABE 240351Z 25003KT 10SM CLR M02/M07 A3005 RMK AO2 SLP182 T10171067 $ =
2017-11-23 21:51 METAR KABE 240251Z 00000KT 10SM CLR M02/M07 A3004 RMK AO2 SLP177 T10171072 53005
                 $ =
2017-11-23 20:51 METAR KABE 240151Z 23004KT 10SM CLR M02/M08 A3002 RMK AO2 SLP171 T10221078 $ =
2017-11-23 19:51 METAR KABE 240051Z 29003KT 10SM CLR 02/M08 A3002 RMK AO2 SLP171 T00171078 $ =
2017-11-23 18:51 METAR KABE 232351Z 24005KT 10SM CLR M01/M07 A3003 RMK AO2 SLP172 T10061072 10056
                 21006 50002 $ =
2017-11-23 17:51 METAR KABE 232251Z 24006KT 10SM CLR 01/M07 A3003 RMK AO2 SLP173 T00061072 $ =
2017-11-23 16:51 METAR KABE 232151Z 25005KT 10SM CLR 02/M07 A3002 RMK AO2 SLP171 T00221072 $ =
2017-11-23 15:51 METAR KABE 232051Z 25007KT 10SM CLR 04/M08 A3002 RMK AO2 SLP169 T00441078 56014
                 $ =
2017-11-23 14:51 METAR KABE 231951Z 23005KT 10SM CLR 06/M08 A3002 RMK AO2 SLP171 T00561078 $ =
2017-11-23 13:51 METAR KABE 231851Z 32006KT 10SM CLR 06/M07 A3005 RMK AO2 SLP178 T00561072 $ =
2017-11-23 12:51 METAR KABE 231751Z VRB05KT 10SM CLR 04/M07 A3006 RMK AO2 SLP183 T00441072 10050
                 21028 $ =
2017-11-23 11:51 METAR KABE 231651Z 31010G16KT 10SM CLR 03/M07 A3009 RMK AO2 SLP193 T00331067 $ =
2017-11-23 10:51 METAR KABE 231551Z VRB06G15KT 10SM CLR 03/M07 A3012 RMK AO2 SLP203 T00281072 $ =
2017-11-23 08:51 METAR KABE 231351Z 30006KT 10SM CLR 00/M08 A3015 RMK AO2 SLP212 T00001078 =

Support USWX by starting your Amazon purchase here.